sensor_id;sensor_type;location;lat;lon;timestamp;P1;durP1;ratioP1;P2;durP2;ratioP2
16862;SDS011;52193;48.216;-1.698;2024-01-25T00:00:58;71.65;;;60.83;;
16862;SDS011;52193;48.216;-1.698;2024-01-25T00:03:25;68.95;;;61.58;;
16862;SDS011;52193;48.216;-1.698;2024-01-25T00:05:51;71.03;;;61.72;;
16862;SDS011;52193;48.216;-1.698;2024-01-25T00:08:20;70.40;;;62.80;;
16862;SDS011;52193;48.216;-1.698;2024-01-25T00:10:47;71.13;;;62.58;;
16862;SDS011;52193;48.216;-1.698;2024-01-25T00:13:14;71.63;;;62.78;;
16862;SDS011;52193;48.216;-1.698;2024-01-25T00:15:41;72.22;;;64.00;;
16862;SDS011;52193;48.216;-1.698;2024-01-25T00:18:07;71.70;;;64.18;;
16862;SDS011;52193;48.216;-1.698;2024-01-25T00:20:34;70.55;;;62.70;;
16862;SDS011;52193;48.216;-1.698;2024-01-25T00:23:01;71.07;;;63.53;;
16862;SDS011;52193;48.216;-1.698;2024-01-25T00:25:30;73.18;;;65.32;;
16862;SDS011;52193;48.216;-1.698;2024-01-25T00:27:57;74.75;;;66.72;;
16862;SDS011;52193;48.216;-1.698;2024-01-25T00:30:24;68.88;;;61.45;;
16862;SDS011;52193;48.216;-1.698;2024-01-25T00:32:51;68.60;;;60.75;;
16862;SDS011;52193;48.216;-1.698;2024-01-25T00:35:18;69.05;;;61.72;;
16862;SDS011;52193;48.216;-1.698;2024-01-25T00:37:45;69.60;;;60.92;;
16862;SDS011;52193;48.216;-1.698;2024-01-25T00:40:12;68.45;;;61.05;;
16862;SDS011;52193;48.216;-1.698;2024-01-25T00:42:42;73.80;;;62.42;;
16862;SDS011;52193;48.216;-1.698;2024-01-25T00:45:14;76.35;;;64.45;;
16862;SDS011;52193;48.216;-1.698;2024-01-25T00:47:42;72.22;;;64.72;;
16862;SDS011;52193;48.216;-1.698;2024-01-25T00:50:09;69.80;;;62.33;;
16862;SDS011;52193;48.216;-1.698;2024-01-25T00:52:37;72.35;;;64.50;;
16862;SDS011;52193;48.216;-1.698;2024-01-25T00:55:05;72.35;;;64.43;;
16862;SDS011;52193;48.216;-1.698;2024-01-25T00:57:32;70.82;;;63.03;;
16862;SDS011;52193;48.216;-1.698;2024-01-25T01:00:01;71.85;;;64.10;;
16862;SDS011;52193;48.216;-1.698;2024-01-25T01:02:29;75.25;;;67.45;;
16862;SDS011;52193;48.216;-1.698;2024-01-25T01:05:01;74.85;;;67.20;;
16862;SDS011;52193;48.216;-1.698;2024-01-25T01:07:29;73.10;;;65.72;;
16862;SDS011;52193;48.216;-1.698;2024-01-25T01:09:56;71.10;;;63.50;;
16862;SDS011;52193;48.216;-1.698;2024-01-25T01:12:23;71.57;;;64.28;;
16862;SDS011;52193;48.216;-1.698;2024-01-25T01:14:49;70.95;;;63.17;;
16862;SDS011;52193;48.216;-1.698;2024-01-25T01:17:18;74.18;;;66.57;;
16862;SDS011;52193;48.216;-1.698;2024-01-25T01:19:44;74.13;;;66.18;;
16862;SDS011;52193;48.216;-1.698;2024-01-25T01:22:11;72.20;;;65.00;;
16862;SDS011;52193;48.216;-1.698;2024-01-25T01:24:38;76.28;;;66.55;;
16862;SDS011;52193;48.216;-1.698;2024-01-25T01:27:05;72.40;;;64.80;;
16862;SDS011;52193;48.216;-1.698;2024-01-25T01:29:32;69.82;;;62.30;;
16862;SDS011;52193;48.216;-1.698;2024-01-25T01:31:59;69.93;;;63.00;;
16862;SDS011;52193;48.216;-1.698;2024-01-25T01:34:27;70.57;;;63.17;;
16862;SDS011;52193;48.216;-1.698;2024-01-25T01:36:54;69.85;;;62.35;;
16862;SDS011;52193;48.216;-1.698;2024-01-25T01:39:21;69.55;;;62.13;;
16862;SDS011;52193;48.216;-1.698;2024-01-25T01:41:48;71.10;;;63.50;;
16862;SDS011;52193;48.216;-1.698;2024-01-25T01:44:15;71.15;;;63.67;;
16862;SDS011;52193;48.216;-1.698;2024-01-25T01:46:42;69.03;;;61.38;;
16862;SDS011;52193;48.216;-1.698;2024-01-25T01:49:11;68.60;;;61.50;;
16862;SDS011;52193;48.216;-1.698;2024-01-25T01:51:40;69.55;;;62.20;;
16862;SDS011;52193;48.216;-1.698;2024-01-25T01:54:09;67.55;;;60.40;;
16862;SDS011;52193;48.216;-1.698;2024-01-25T01:56:36;67.82;;;60.78;;
16862;SDS011;52193;48.216;-1.698;2024-01-25T01:59:05;66.30;;;59.40;;
16862;SDS011;52193;48.216;-1.698;2024-01-25T02:01:35;68.35;;;61.08;;
16862;SDS011;52193;48.216;-1.698;2024-01-25T02:04:02;67.10;;;60.08;;
16862;SDS011;52193;48.216;-1.698;2024-01-25T02:06:29;65.38;;;58.30;;
16862;SDS011;52193;48.216;-1.698;2024-01-25T02:08:58;65.85;;;59.03;;
16862;SDS011;52193;48.216;-1.698;2024-01-25T02:11:25;66.85;;;59.60;;
16862;SDS011;52193;48.216;-1.698;2024-01-25T02:13:52;66.53;;;59.72;;
16862;SDS011;52193;48.216;-1.698;2024-01-25T02:16:19;69.38;;;62.17;;
16862;SDS011;52193;48.216;-1.698;2024-01-25T02:18:46;69.30;;;62.28;;
16862;SDS011;52193;48.216;-1.698;2024-01-25T02:21:12;65.85;;;58.97;;
16862;SDS011;52193;48.216;-1.698;2024-01-25T02:23:41;66.53;;;60.00;;
16862;SDS011;52193;48.216;-1.698;2024-01-25T02:26:08;67.80;;;60.90;;
16862;SDS011;52193;48.216;-1.698;2024-01-25T02:28:35;68.03;;;60.63;;
16862;SDS011;52193;48.216;-1.698;2024-01-25T02:31:02;66.88;;;60.15;;
16862;SDS011;52193;48.216;-1.698;2024-01-25T02:33:29;65.00;;;58.45;;
16862;SDS011;52193;48.216;-1.698;2024-01-25T02:35:56;65.07;;;58.58;;
16862;SDS011;52193;48.216;-1.698;2024-01-25T02:38:23;65.03;;;58.30;;
16862;SDS011;52193;48.216;-1.698;2024-01-25T02:40:51;65.20;;;58.60;;
16862;SDS011;52193;48.216;-1.698;2024-01-25T02:43:19;66.22;;;59.38;;
16862;SDS011;52193;48.216;-1.698;2024-01-25T02:45:47;64.85;;;58.25;;
16862;SDS011;52193;48.216;-1.698;2024-01-25T02:48:14;64.63;;;58.17;;
16862;SDS011;52193;48.216;-1.698;2024-01-25T02:50:41;63.95;;;57.20;;
16862;SDS011;52193;48.216;-1.698;2024-01-25T02:53:08;63.42;;;56.65;;
16862;SDS011;52193;48.216;-1.698;2024-01-25T02:55:35;63.30;;;56.80;;
16862;SDS011;52193;48.216;-1.698;2024-01-25T02:58:03;63.28;;;56.72;;
16862;SDS011;52193;48.216;-1.698;2024-01-25T03:00:30;66.05;;;59.33;;
16862;SDS011;52193;48.216;-1.698;2024-01-25T03:02:57;66.43;;;59.55;;
16862;SDS011;52193;48.216;-1.698;2024-01-25T03:05:24;65.53;;;58.88;;
16862;SDS011;52193;48.216;-1.698;2024-01-25T03:07:51;66.63;;;59.85;;
16862;SDS011;52193;48.216;-1.698;2024-01-25T03:10:17;68.38;;;61.33;;
16862;SDS011;52193;48.216;-1.698;2024-01-25T03:12:45;68.10;;;61.22;;
16862;SDS011;52193;48.216;-1.698;2024-01-25T03:15:13;67.93;;;61.17;;
16862;SDS011;52193;48.216;-1.698;2024-01-25T03:17:40;66.75;;;59.95;;
16862;SDS011;52193;48.216;-1.698;2024-01-25T03:20:07;65.25;;;58.53;;
16862;SDS011;52193;48.216;-1.698;2024-01-25T03:22:35;68.70;;;61.72;;
16862;SDS011;52193;48.216;-1.698;2024-01-25T03:25:02;71.15;;;63.92;;
16862;SDS011;52193;48.216;-1.698;2024-01-25T03:27:29;68.40;;;61.70;;
16862;SDS011;52193;48.216;-1.698;2024-01-25T03:29:56;71.18;;;63.95;;
16862;SDS011;52193;48.216;-1.698;2024-01-25T03:32:25;65.35;;;59.03;;
16862;SDS011;52193;48.216;-1.698;2024-01-25T03:34:52;69.70;;;62.63;;
16862;SDS011;52193;48.216;-1.698;2024-01-25T03:37:19;72.15;;;64.60;;
16862;SDS011;52193;48.216;-1.698;2024-01-25T03:39:46;69.60;;;62.55;;
16862;SDS011;52193;48.216;-1.698;2024-01-25T03:42:12;69.75;;;62.60;;
16862;SDS011;52193;48.216;-1.698;2024-01-25T03:44:39;73.10;;;65.72;;
16862;SDS011;52193;48.216;-1.698;2024-01-25T03:47:07;72.15;;;64.93;;
16862;SDS011;52193;48.216;-1.698;2024-01-25T03:49:35;71.95;;;64.75;;
16862;SDS011;52193;48.216;-1.698;2024-01-25T03:52:02;70.00;;;63.10;;
16862;SDS011;52193;48.216;-1.698;2024-01-25T03:54:30;69.32;;;62.63;;
16862;SDS011;52193;48.216;-1.698;2024-01-25T03:56:56;68.10;;;61.60;;
16862;SDS011;52193;48.216;-1.698;2024-01-25T03:59:23;67.63;;;61.10;;
16862;SDS011;52193;48.216;-1.698;2024-01-25T04:01:50;64.15;;;58.05;;
16862;SDS011;52193;48.216;-1.698;2024-01-25T04:04:17;61.67;;;55.80;;
16862;SDS011;52193;48.216;-1.698;2024-01-25T04:06:45;60.55;;;55.00;;
16862;SDS011;52193;48.216;-1.698;2024-01-25T04:09:13;57.75;;;52.08;;
16862;SDS011;52193;48.216;-1.698;2024-01-25T04:11:40;58.22;;;53.00;;
16862;SDS011;52193;48.216;-1.698;2024-01-25T04:14:07;56.45;;;51.17;;
16862;SDS011;52193;48.216;-1.698;2024-01-25T04:16:34;55.50;;;50.30;;
16862;SDS011;52193;48.216;-1.698;2024-01-25T04:19:01;56.13;;;50.97;;
16862;SDS011;52193;48.216;-1.698;2024-01-25T04:21:27;55.08;;;49.97;;
16862;SDS011;52193;48.216;-1.698;2024-01-25T04:23:55;55.20;;;50.28;;
16862;SDS011;52193;48.216;-1.698;2024-01-25T04:26:22;54.15;;;49.10;;
16862;SDS011;52193;48.216;-1.698;2024-01-25T04:28:49;52.40;;;47.50;;
16862;SDS011;52193;48.216;-1.698;2024-01-25T04:31:16;52.17;;;47.45;;
16862;SDS011;52193;48.216;-1.698;2024-01-25T04:33:44;52.00;;;47.20;;
16862;SDS011;52193;48.216;-1.698;2024-01-25T04:36:11;51.55;;;47.00;;
16862;SDS011;52193;48.216;-1.698;2024-01-25T04:38:38;51.15;;;46.38;;
16862;SDS011;52193;48.216;-1.698;2024-01-25T04:41:07;50.15;;;45.50;;
16862;SDS011;52193;48.216;-1.698;2024-01-25T04:43:34;49.72;;;45.05;;
16862;SDS011;52193;48.216;-1.698;2024-01-25T04:46:02;48.75;;;44.38;;
16862;SDS011;52193;48.216;-1.698;2024-01-25T04:48:29;48.90;;;44.50;;
16862;SDS011;52193;48.216;-1.698;2024-01-25T04:50:56;48.60;;;44.05;;
16862;SDS011;52193;48.216;-1.698;2024-01-25T04:53:24;47.63;;;43.42;;
16862;SDS011;52193;48.216;-1.698;2024-01-25T04:55:51;46.58;;;42.33;;
16862;SDS011;52193;48.216;-1.698;2024-01-25T04:58:20;48.70;;;44.20;;
16862;SDS011;52193;48.216;-1.698;2024-01-25T05:00:47;46.35;;;42.13;;
16862;SDS011;52193;48.216;-1.698;2024-01-25T05:03:15;45.90;;;41.70;;
16862;SDS011;52193;48.216;-1.698;2024-01-25T05:05:42;48.65;;;44.20;;
16862;SDS011;52193;48.216;-1.698;2024-01-25T05:08:09;49.47;;;45.15;;
16862;SDS011;52193;48.216;-1.698;2024-01-25T05:10:36;50.22;;;45.88;;
16862;SDS011;52193;48.216;-1.698;2024-01-25T05:13:03;47.38;;;43.17;;
16862;SDS011;52193;48.216;-1.698;2024-01-25T05:15:31;54.03;;;49.42;;
16862;SDS011;52193;48.216;-1.698;2024-01-25T05:17:58;50.50;;;45.88;;
16862;SDS011;52193;48.216;-1.698;2024-01-25T05:20:25;50.00;;;45.67;;
16862;SDS011;52193;48.216;-1.698;2024-01-25T05:22:57;49.05;;;44.65;;
16862;SDS011;52193;48.216;-1.698;2024-01-25T05:25:24;50.45;;;46.05;;
16862;SDS011;52193;48.216;-1.698;2024-01-25T05:27:51;50.95;;;46.33;;
16862;SDS011;52193;48.216;-1.698;2024-01-25T05:30:18;51.65;;;46.88;;
16862;SDS011;52193;48.216;-1.698;2024-01-25T05:32:46;51.00;;;46.55;;
16862;SDS011;52193;48.216;-1.698;2024-01-25T05:35:14;50.72;;;46.20;;
16862;SDS011;52193;48.216;-1.698;2024-01-25T05:37:42;49.63;;;45.17;;
16862;SDS011;52193;48.216;-1.698;2024-01-25T05:40:09;50.28;;;45.70;;
16862;SDS011;52193;48.216;-1.698;2024-01-25T05:42:36;50.40;;;45.65;;
16862;SDS011;52193;48.216;-1.698;2024-01-25T05:45:04;50.80;;;46.30;;
16862;SDS011;52193;48.216;-1.698;2024-01-25T05:47:31;50.22;;;45.63;;
16862;SDS011;52193;48.216;-1.698;2024-01-25T05:50:01;51.97;;;47.17;;
16862;SDS011;52193;48.216;-1.698;2024-01-25T05:52:28;49.83;;;45.42;;
16862;SDS011;52193;48.216;-1.698;2024-01-25T05:54:55;50.75;;;46.13;;
16862;SDS011;52193;48.216;-1.698;2024-01-25T05:57:22;51.05;;;45.85;;
16862;SDS011;52193;48.216;-1.698;2024-01-25T05:59:49;49.67;;;45.08;;
16862;SDS011;52193;48.216;-1.698;2024-01-25T06:02:15;49.75;;;45.03;;
16862;SDS011;52193;48.216;-1.698;2024-01-25T06:04:42;50.58;;;45.58;;
16862;SDS011;52193;48.216;-1.698;2024-01-25T06:07:10;50.60;;;45.80;;
16862;SDS011;52193;48.216;-1.698;2024-01-25T06:09:37;50.53;;;45.78;;
16862;SDS011;52193;48.216;-1.698;2024-01-25T06:12:05;50.63;;;45.60;;
16862;SDS011;52193;48.216;-1.698;2024-01-25T06:14:32;52.50;;;47.17;;
16862;SDS011;52193;48.216;-1.698;2024-01-25T06:16:59;51.72;;;46.42;;
16862;SDS011;52193;48.216;-1.698;2024-01-25T06:19:25;51.78;;;46.63;;
16862;SDS011;52193;48.216;-1.698;2024-01-25T06:21:53;51.72;;;46.53;;
16862;SDS011;52193;48.216;-1.698;2024-01-25T06:24:21;51.95;;;46.75;;
16862;SDS011;52193;48.216;-1.698;2024-01-25T06:26:48;52.72;;;47.42;;
16862;SDS011;52193;48.216;-1.698;2024-01-25T06:29:15;52.13;;;47.03;;
16862;SDS011;52193;48.216;-1.698;2024-01-25T06:31:42;50.70;;;45.88;;
16862;SDS011;52193;48.216;-1.698;2024-01-25T06:34:09;50.78;;;45.97;;
16862;SDS011;52193;48.216;-1.698;2024-01-25T06:36:37;51.47;;;46.38;;
16862;SDS011;52193;48.216;-1.698;2024-01-25T06:39:03;51.60;;;46.53;;
16862;SDS011;52193;48.216;-1.698;2024-01-25T06:41:32;52.47;;;47.05;;
16862;SDS011;52193;48.216;-1.698;2024-01-25T06:43:59;52.53;;;47.30;;
16862;SDS011;52193;48.216;-1.698;2024-01-25T06:46:26;50.85;;;45.60;;
16862;SDS011;52193;48.216;-1.698;2024-01-25T06:48:53;50.88;;;45.78;;
16862;SDS011;52193;48.216;-1.698;2024-01-25T06:51:20;52.40;;;46.85;;
16862;SDS011;52193;48.216;-1.698;2024-01-25T06:53:47;52.38;;;46.47;;
16862;SDS011;52193;48.216;-1.698;2024-01-25T06:56:14;52.15;;;47.08;;
16862;SDS011;52193;48.216;-1.698;2024-01-25T06:58:43;51.55;;;46.25;;
16862;SDS011;52193;48.216;-1.698;2024-01-25T07:01:10;53.63;;;48.13;;
16862;SDS011;52193;48.216;-1.698;2024-01-25T07:03:37;51.75;;;46.47;;
16862;SDS011;52193;48.216;-1.698;2024-01-25T07:06:04;50.75;;;45.35;;
16862;SDS011;52193;48.216;-1.698;2024-01-25T07:08:31;50.83;;;45.53;;
16862;SDS011;52193;48.216;-1.698;2024-01-25T07:10:58;50.20;;;45.03;;
16862;SDS011;52193;48.216;-1.698;2024-01-25T07:13:27;50.72;;;45.35;;
16862;SDS011;52193;48.216;-1.698;2024-01-25T07:15:55;51.35;;;46.17;;
16862;SDS011;52193;48.216;-1.698;2024-01-25T07:18:22;51.38;;;46.17;;
16862;SDS011;52193;48.216;-1.698;2024-01-25T07:20:49;55.45;;;50.13;;
16862;SDS011;52193;48.216;-1.698;2024-01-25T07:23:17;54.72;;;49.10;;
16862;SDS011;52193;48.216;-1.698;2024-01-25T07:25:44;55.63;;;50.08;;
16862;SDS011;52193;48.216;-1.698;2024-01-25T07:28:11;56.08;;;50.50;;
16862;SDS011;52193;48.216;-1.698;2024-01-25T07:30:38;54.97;;;49.63;;
16862;SDS011;52193;48.216;-1.698;2024-01-25T07:33:06;54.70;;;49.05;;
16862;SDS011;52193;48.216;-1.698;2024-01-25T07:35:33;55.70;;;50.33;;
16862;SDS011;52193;48.216;-1.698;2024-01-25T07:38:00;54.88;;;49.38;;
16862;SDS011;52193;48.216;-1.698;2024-01-25T07:40:27;55.05;;;49.40;;
16862;SDS011;52193;48.216;-1.698;2024-01-25T07:42:54;54.92;;;49.42;;
16862;SDS011;52193;48.216;-1.698;2024-01-25T07:45:21;55.05;;;49.45;;
16862;SDS011;52193;48.216;-1.698;2024-01-25T07:47:48;54.58;;;49.20;;
16862;SDS011;52193;48.216;-1.698;2024-01-25T07:50:16;55.33;;;50.08;;
16862;SDS011;52193;48.216;-1.698;2024-01-25T07:52:43;54.08;;;48.67;;
16862;SDS011;52193;48.216;-1.698;2024-01-25T07:55:10;55.88;;;50.17;;
16862;SDS011;52193;48.216;-1.698;2024-01-25T07:57:37;56.80;;;51.28;;
16862;SDS011;52193;48.216;-1.698;2024-01-25T08:00:04;56.38;;;50.67;;
16862;SDS011;52193;48.216;-1.698;2024-01-25T08:02:33;55.53;;;50.13;;
16862;SDS011;52193;48.216;-1.698;2024-01-25T08:05:00;55.35;;;49.75;;
16862;SDS011;52193;48.216;-1.698;2024-01-25T08:07:28;54.67;;;49.25;;
16862;SDS011;52193;48.216;-1.698;2024-01-25T08:09:55;55.05;;;49.70;;
16862;SDS011;52193;48.216;-1.698;2024-01-25T08:12:23;55.85;;;50.13;;
16862;SDS011;52193;48.216;-1.698;2024-01-25T08:14:50;58.92;;;52.80;;
16862;SDS011;52193;48.216;-1.698;2024-01-25T08:17:17;56.72;;;51.13;;
16862;SDS011;52193;48.216;-1.698;2024-01-25T08:19:44;56.13;;;50.75;;
16862;SDS011;52193;48.216;-1.698;2024-01-25T08:22:11;57.42;;;52.22;;
16862;SDS011;52193;48.216;-1.698;2024-01-25T08:24:40;56.42;;;51.10;;
16862;SDS011;52193;48.216;-1.698;2024-01-25T08:27:07;56.75;;;51.25;;
16862;SDS011;52193;48.216;-1.698;2024-01-25T08:29:34;56.35;;;51.00;;
16862;SDS011;52193;48.216;-1.698;2024-01-25T08:32:00;54.95;;;49.78;;
16862;SDS011;52193;48.216;-1.698;2024-01-25T08:34:28;56.42;;;50.92;;
16862;SDS011;52193;48.216;-1.698;2024-01-25T08:36:55;56.67;;;51.33;;
16862;SDS011;52193;48.216;-1.698;2024-01-25T08:39:22;56.45;;;51.13;;
16862;SDS011;52193;48.216;-1.698;2024-01-25T08:41:50;57.67;;;52.30;;
16862;SDS011;52193;48.216;-1.698;2024-01-25T08:44:17;57.20;;;52.00;;
16862;SDS011;52193;48.216;-1.698;2024-01-25T08:46:44;60.08;;;54.58;;
16862;SDS011;52193;48.216;-1.698;2024-01-25T08:49:11;56.72;;;51.22;;
16862;SDS011;52193;48.216;-1.698;2024-01-25T08:51:38;55.15;;;49.85;;
16862;SDS011;52193;48.216;-1.698;2024-01-25T08:54:05;57.38;;;51.88;;
16862;SDS011;52193;48.216;-1.698;2024-01-25T08:56:32;56.85;;;51.33;;
16862;SDS011;52193;48.216;-1.698;2024-01-25T08:59:01;55.90;;;50.40;;
16862;SDS011;52193;48.216;-1.698;2024-01-25T09:01:28;59.03;;;53.63;;
16862;SDS011;52193;48.216;-1.698;2024-01-25T09:03:55;56.20;;;51.00;;
16862;SDS011;52193;48.216;-1.698;2024-01-25T09:06:25;57.63;;;52.13;;
16862;SDS011;52193;48.216;-1.698;2024-01-25T09:08:52;56.08;;;50.78;;
16862;SDS011;52193;48.216;-1.698;2024-01-25T09:11:19;56.58;;;51.38;;
16862;SDS011;52193;48.216;-1.698;2024-01-25T09:13:46;56.35;;;50.78;;
16862;SDS011;52193;48.216;-1.698;2024-01-25T09:16:15;56.47;;;51.08;;
16862;SDS011;52193;48.216;-1.698;2024-01-25T09:18:42;54.38;;;49.28;;
16862;SDS011;52193;48.216;-1.698;2024-01-25T09:21:09;54.45;;;49.22;;
16862;SDS011;52193;48.216;-1.698;2024-01-25T09:23:36;54.10;;;49.10;;
16862;SDS011;52193;48.216;-1.698;2024-01-25T09:26:03;55.45;;;50.22;;
16862;SDS011;52193;48.216;-1.698;2024-01-25T09:28:30;54.58;;;49.38;;
16862;SDS011;52193;48.216;-1.698;2024-01-25T09:30:57;55.60;;;49.90;;
16862;SDS011;52193;48.216;-1.698;2024-01-25T09:33:25;55.55;;;50.03;;
16862;SDS011;52193;48.216;-1.698;2024-01-25T09:35:52;54.25;;;49.00;;
16862;SDS011;52193;48.216;-1.698;2024-01-25T09:38:18;54.88;;;49.78;;
16862;SDS011;52193;48.216;-1.698;2024-01-25T09:40:45;53.88;;;48.88;;
16862;SDS011;52193;48.216;-1.698;2024-01-25T09:43:13;53.63;;;48.65;;
16862;SDS011;52193;48.216;-1.698;2024-01-25T09:45:40;52.60;;;47.67;;
16862;SDS011;52193;48.216;-1.698;2024-01-25T09:48:08;51.08;;;46.13;;
16862;SDS011;52193;48.216;-1.698;2024-01-25T09:50:36;50.85;;;46.05;;
16862;SDS011;52193;48.216;-1.698;2024-01-25T09:53:04;51.15;;;46.25;;
16862;SDS011;52193;48.216;-1.698;2024-01-25T09:55:33;50.17;;;45.13;;
16862;SDS011;52193;48.216;-1.698;2024-01-25T09:58:04;51.03;;;46.22;;
16862;SDS011;52193;48.216;-1.698;2024-01-25T10:00:33;49.25;;;44.28;;
16862;SDS011;52193;48.216;-1.698;2024-01-25T10:02:59;49.70;;;44.80;;
16862;SDS011;52193;48.216;-1.698;2024-01-25T10:05:26;51.85;;;46.85;;
16862;SDS011;52193;48.216;-1.698;2024-01-25T10:07:54;50.85;;;45.97;;
16862;SDS011;52193;48.216;-1.698;2024-01-25T10:10:26;49.42;;;44.70;;
16862;SDS011;52193;48.216;-1.698;2024-01-25T10:12:55;49.95;;;45.13;;
16862;SDS011;52193;48.216;-1.698;2024-01-25T10:15:23;49.70;;;44.97;;
16862;SDS011;52193;48.216;-1.698;2024-01-25T10:17:50;48.35;;;43.55;;
16862;SDS011;52193;48.216;-1.698;2024-01-25T10:20:17;49.92;;;44.90;;
16862;SDS011;52193;48.216;-1.698;2024-01-25T10:22:46;50.22;;;45.13;;
16862;SDS011;52193;48.216;-1.698;2024-01-25T10:25:14;48.80;;;44.00;;
16862;SDS011;52193;48.216;-1.698;2024-01-25T10:27:41;49.90;;;45.05;;
16862;SDS011;52193;48.216;-1.698;2024-01-25T10:30:08;48.10;;;43.40;;
16862;SDS011;52193;48.216;-1.698;2024-01-25T10:32:37;49.33;;;44.53;;
16862;SDS011;52193;48.216;-1.698;2024-01-25T10:35:05;50.42;;;45.22;;
16862;SDS011;52193;48.216;-1.698;2024-01-25T10:37:34;50.00;;;45.15;;
16862;SDS011;52193;48.216;-1.698;2024-01-25T10:40:02;50.78;;;45.47;;
16862;SDS011;52193;48.216;-1.698;2024-01-25T10:42:32;51.45;;;46.35;;
16862;SDS011;52193;48.216;-1.698;2024-01-25T10:44:58;52.83;;;47.70;;
16862;SDS011;52193;48.216;-1.698;2024-01-25T10:47:25;52.70;;;47.47;;
16862;SDS011;52193;48.216;-1.698;2024-01-25T10:49:55;53.15;;;47.75;;
16862;SDS011;52193;48.216;-1.698;2024-01-25T10:52:23;57.42;;;51.92;;
16862;SDS011;52193;48.216;-1.698;2024-01-25T10:54:50;60.70;;;54.88;;
16862;SDS011;52193;48.216;-1.698;2024-01-25T10:57:18;62.28;;;56.30;;
16862;SDS011;52193;48.216;-1.698;2024-01-25T10:59:45;62.88;;;57.08;;
16862;SDS011;52193;48.216;-1.698;2024-01-25T11:02:12;62.50;;;56.53;;
16862;SDS011;52193;48.216;-1.698;2024-01-25T11:04:39;64.68;;;58.70;;
16862;SDS011;52193;48.216;-1.698;2024-01-25T11:07:07;66.03;;;59.83;;
16862;SDS011;52193;48.216;-1.698;2024-01-25T11:09:34;66.53;;;60.33;;
16862;SDS011;52193;48.216;-1.698;2024-01-25T11:12:09;66.63;;;60.42;;
16862;SDS011;52193;48.216;-1.698;2024-01-25T11:14:37;66.50;;;60.15;;
16862;SDS011;52193;48.216;-1.698;2024-01-25T11:17:15;67.95;;;61.67;;
16862;SDS011;52193;48.216;-1.698;2024-01-25T11:19:45;67.22;;;60.75;;
16862;SDS011;52193;48.216;-1.698;2024-01-25T11:22:11;68.18;;;61.88;;
16862;SDS011;52193;48.216;-1.698;2024-01-25T11:24:38;69.55;;;63.25;;
16862;SDS011;52193;48.216;-1.698;2024-01-25T11:27:07;71.32;;;64.63;;
16862;SDS011;52193;48.216;-1.698;2024-01-25T11:29:35;69.53;;;63.08;;
16862;SDS011;52193;48.216;-1.698;2024-01-25T11:32:04;74.40;;;67.88;;
16862;SDS011;52193;48.216;-1.698;2024-01-25T11:34:33;70.43;;;63.92;;
16862;SDS011;52193;48.216;-1.698;2024-01-25T11:36:59;71.20;;;64.68;;
16862;SDS011;52193;48.216;-1.698;2024-01-25T11:39:26;72.13;;;65.72;;
16862;SDS011;52193;48.216;-1.698;2024-01-25T11:41:53;76.68;;;69.80;;
16862;SDS011;52193;48.216;-1.698;2024-01-25T11:44:20;77.78;;;70.82;;
16862;SDS011;52193;48.216;-1.698;2024-01-25T11:46:49;78.07;;;71.25;;
16862;SDS011;52193;48.216;-1.698;2024-01-25T11:49:15;76.72;;;69.80;;
16862;SDS011;52193;48.216;-1.698;2024-01-25T11:51:44;75.05;;;68.22;;
16862;SDS011;52193;48.216;-1.698;2024-01-25T11:54:10;75.22;;;68.45;;
16862;SDS011;52193;48.216;-1.698;2024-01-25T11:56:38;76.65;;;69.68;;
16862;SDS011;52193;48.216;-1.698;2024-01-25T11:59:07;76.47;;;69.47;;
16862;SDS011;52193;48.216;-1.698;2024-01-25T12:01:34;75.45;;;68.55;;
16862;SDS011;52193;48.216;-1.698;2024-01-25T12:04:01;76.28;;;69.32;;
16862;SDS011;52193;48.216;-1.698;2024-01-25T12:06:29;78.07;;;70.88;;
16862;SDS011;52193;48.216;-1.698;2024-01-25T12:09:06;77.22;;;70.00;;
16862;SDS011;52193;48.216;-1.698;2024-01-25T12:11:34;76.35;;;69.40;;
16862;SDS011;52193;48.216;-1.698;2024-01-25T12:14:01;74.75;;;67.95;;
16862;SDS011;52193;48.216;-1.698;2024-01-25T12:16:28;75.85;;;68.95;;
16862;SDS011;52193;48.216;-1.698;2024-01-25T12:18:55;75.63;;;68.82;;
16862;SDS011;52193;48.216;-1.698;2024-01-25T12:21:22;78.25;;;71.18;;
16862;SDS011;52193;48.216;-1.698;2024-01-25T12:23:50;78.97;;;71.80;;
16862;SDS011;52193;48.216;-1.698;2024-01-25T12:26:18;77.47;;;70.43;;
16862;SDS011;52193;48.216;-1.698;2024-01-25T12:28:45;79.43;;;72.20;;
16862;SDS011;52193;48.216;-1.698;2024-01-25T12:31:14;76.10;;;68.90;;
16862;SDS011;52193;48.216;-1.698;2024-01-25T12:33:41;75.05;;;68.20;;
16862;SDS011;52193;48.216;-1.698;2024-01-25T12:36:08;72.13;;;65.43;;
16862;SDS011;52193;48.216;-1.698;2024-01-25T12:38:37;73.93;;;67.13;;
16862;SDS011;52193;48.216;-1.698;2024-01-25T12:41:04;74.43;;;67.50;;
16862;SDS011;52193;48.216;-1.698;2024-01-25T12:43:32;74.22;;;67.38;;
16862;SDS011;52193;48.216;-1.698;2024-01-25T12:45:59;74.85;;;67.95;;
16862;SDS011;52193;48.216;-1.698;2024-01-25T12:48:26;71.55;;;64.68;;
16862;SDS011;52193;48.216;-1.698;2024-01-25T12:50:53;70.57;;;63.92;;
16862;SDS011;52193;48.216;-1.698;2024-01-25T12:53:20;74.07;;;66.85;;
16862;SDS011;52193;48.216;-1.698;2024-01-25T12:55:47;71.43;;;64.68;;
16862;SDS011;52193;48.216;-1.698;2024-01-25T12:58:14;73.15;;;66.28;;
16862;SDS011;52193;48.216;-1.698;2024-01-25T13:00:42;73.75;;;66.75;;
16862;SDS011;52193;48.216;-1.698;2024-01-25T13:03:10;70.13;;;63.40;;
16862;SDS011;52193;48.216;-1.698;2024-01-25T13:05:37;69.95;;;63.38;;
16862;SDS011;52193;48.216;-1.698;2024-01-25T13:08:05;71.05;;;64.40;;
16862;SDS011;52193;48.216;-1.698;2024-01-25T13:10:32;73.25;;;66.20;;
16862;SDS011;52193;48.216;-1.698;2024-01-25T13:12:59;70.68;;;63.78;;
16862;SDS011;52193;48.216;-1.698;2024-01-25T13:15:26;72.90;;;65.53;;
16862;SDS011;52193;48.216;-1.698;2024-01-25T13:17:54;70.82;;;64.13;;
16862;SDS011;52193;48.216;-1.698;2024-01-25T13:20:22;71.32;;;64.32;;
16862;SDS011;52193;48.216;-1.698;2024-01-25T13:22:49;69.28;;;62.63;;
16862;SDS011;52193;48.216;-1.698;2024-01-25T13:25:16;69.75;;;62.90;;
16862;SDS011;52193;48.216;-1.698;2024-01-25T13:27:42;71.07;;;63.80;;
16862;SDS011;52193;48.216;-1.698;2024-01-25T13:30:09;67.57;;;60.80;;
16862;SDS011;52193;48.216;-1.698;2024-01-25T13:32:38;68.90;;;62.00;;
16862;SDS011;52193;48.216;-1.698;2024-01-25T13:35:07;67.63;;;60.83;;
16862;SDS011;52193;48.216;-1.698;2024-01-25T13:37:34;68.47;;;61.78;;
16862;SDS011;52193;48.216;-1.698;2024-01-25T13:40:01;65.50;;;59.15;;
16862;SDS011;52193;48.216;-1.698;2024-01-25T13:42:29;67.95;;;60.97;;
16862;SDS011;52193;48.216;-1.698;2024-01-25T13:44:55;66.80;;;60.40;;
16862;SDS011;52193;48.216;-1.698;2024-01-25T13:47:22;70.38;;;63.80;;
16862;SDS011;52193;48.216;-1.698;2024-01-25T13:49:49;68.20;;;61.33;;
16862;SDS011;52193;48.216;-1.698;2024-01-25T13:52:18;65.05;;;58.78;;
16862;SDS011;52193;48.216;-1.698;2024-01-25T13:54:46;63.15;;;57.22;;
16862;SDS011;52193;48.216;-1.698;2024-01-25T13:57:14;64.90;;;58.80;;
16862;SDS011;52193;48.216;-1.698;2024-01-25T13:59:42;61.83;;;55.83;;
16862;SDS011;52193;48.216;-1.698;2024-01-25T14:02:09;62.33;;;56.50;;
16862;SDS011;52193;48.216;-1.698;2024-01-25T14:04:35;63.65;;;57.65;;
16862;SDS011;52193;48.216;-1.698;2024-01-25T14:07:02;61.67;;;55.53;;
16862;SDS011;52193;48.216;-1.698;2024-01-25T14:09:31;60.65;;;54.83;;